Time;durP1;ratioP1;P1;durP2;ratioP2;P2;SDS_P1;SDS_P2;PMS_P1;PMS_P2;Temp;Humidity;BMP_temperature;BMP_pressure;BME280_temperature;BME280_humidity;BME280_pressure;Samples;Min_cycle;Max_cycle;Signal;HPM_P1;HPM_P2
2021/05/23 00:00:23;;;;;;;2.83;0.70;;;13.10;99.90;;;;;;4960354;28;20050;-69
2021/05/23 00:02:48;;;;;;;1.08;0.68;;;13.00;47.40;;;;;;4974349;28;20027;-70
2021/05/23 00:05:18;;;;;;;0.82;0.55;;;13.10;99.90;;;;;;4973770;28;20399;-69
2021/05/23 00:07:53;;;;;;;2.35;0.70;;;13.10;99.90;;;;;;4973585;28;20042;-69
2021/05/23 00:10:20;;;;;;;1.10;0.57;;;13.10;1.00;;;;;;4974622;28;20029;-69
2021/05/23 00:12:46;;;;;;;1.10;0.65;;;13.10;1.00;;;;;;4996737;28;20037;-70
2021/05/23 00:15:18;;;;;;;1.40;1.20;;;13.10;1.00;;;;;;4981513;28;20035;-69
2021/05/23 00:17:43;;;;;;;4.43;0.75;;;13.10;99.90;;;;;;4974667;28;20023;-68
2021/05/23 00:20:10;;;;;;;1.88;0.60;;;13.10;1.00;;;;;;4972963;28;20048;-69
2021/05/23 00:22:35;;;;;;;0.70;0.50;;;13.10;96.80;;;;;;4973634;28;20066;-69
2021/05/23 00:25:01;;;;;;;0.80;0.60;;;13.10;94.90;;;;;;4974182;28;20467;-69
2021/05/23 00:27:26;;;;;;;1.73;0.40;;;13.10;99.90;;;;;;4975090;28;20023;-69
2021/05/23 00:29:52;;;;;;;1.17;0.50;;;13.10;99.90;;;;;;4974355;28;20093;-69
2021/05/23 00:32:19;;;;;;;0.82;0.47;;;13.10;99.90;;;;;;4988774;28;20431;-70
2021/05/23 00:34:45;;;;;;;2.30;1.02;;;13.10;1.00;;;;;;4973997;28;20030;-70
2021/05/23 00:37:10;;;;;;;2.13;0.85;;;13.00;1.00;;;;;;4974431;28;20055;-70
2021/05/23 00:39:36;;;;;;;3.67;0.90;;;13.10;1.00;;;;;;4972068;28;20027;-69
2021/05/23 00:42:01;;;;;;;1.40;0.82;;;13.10;1.00;;;;;;4974001;28;20031;-69
2021/05/23 00:44:27;;;;;;;1.77;0.60;;;13.00;1.00;;;;;;4974858;28;20030;-72
2021/05/23 00:46:53;;;;;;;1.75;1.00;;;13.00;1.00;;;;;;4974391;28;20122;-69
2021/05/23 00:49:18;;;;;;;1.40;0.70;;;13.10;99.90;;;;;;4972716;28;20025;-69
2021/05/23 00:51:44;;;;;;;2.25;0.57;;;13.00;99.90;;;;;;4974106;28;20077;-71
2021/05/23 00:54:09;;;;;;;1.73;0.70;;;13.00;99.90;;;;;;4974360;28;20027;-69
2021/05/23 00:56:36;;;;;;;1.70;0.85;;;13.00;1.00;;;;;;4973937;28;20368;-69
2021/05/23 00:59:02;;;;;;;2.42;0.60;;;13.00;79.40;;;;;;4974165;28;20081;-70
2021/05/23 01:02:06;;;;;;;1.48;0.65;;;13.00;99.90;;;;;;4973754;28;20471;-70
2021/05/23 01:04:33;;;;;;;0.80;0.73;;;13.00;99.90;;;;;;4965841;28;20146;-69
2021/05/23 01:06:59;;;;;;;2.28;0.60;;;13.00;1.00;;;;;;4973997;28;20101;-70
2021/05/23 01:09:24;;;;;;;2.50;0.77;;;12.90;1.00;;;;;;4974124;28;20057;-68
2021/05/23 01:11:50;;;;;;;2.25;0.55;;;12.90;73.00;;;;;;4974382;28;20484;-70
2021/05/23 01:14:23;;;;;;;1.92;0.85;;;12.90;99.90;;;;;;4974410;28;20031;-70
2021/05/23 01:16:52;;;;;;;0.93;0.50;;;12.90;1.00;;;;;;4973427;28;20034;-69
2021/05/23 01:19:33;;;;;;;1.35;0.40;;;13.00;99.90;;;;;;4973008;28;20035;-69
2021/05/23 01:22:11;;;;;;;2.75;0.63;;;12.90;99.90;;;;;;4975284;28;20069;-68
2021/05/23 01:24:41;;;;;;;1.95;0.70;;;12.90;99.90;;;;;;4969561;28;20515;-69
2021/05/23 01:27:09;;;;;;;0.70;0.60;;;12.90;1.00;;;;;;4973111;28;20046;-70
2021/05/23 01:29:35;;;;;;;0.85;0.50;;;12.80;44.20;;;;;;4973777;28;20270;-69
2021/05/23 01:32:01;;;;;;;0.57;0.57;;;12.80;99.90;;;;;;4976767;28;20030;-69
2021/05/23 01:34:27;;;;;;;1.50;0.75;;;12.80;99.90;;;;;;4995835;28;20031;-70
2021/05/23 01:36:56;;;;;;;1.15;1.05;;;12.80;99.90;;;;;;4978695;28;20038;-70
2021/05/23 01:39:22;;;;;;;1.63;0.60;;;12.80;1.00;;;;;;4974595;28;20039;-70
2021/05/23 01:41:49;;;;;;;0.77;0.40;;;12.80;1.00;;;;;;4977361;28;20023;-72
2021/05/23 01:44:16;;;;;;;0.77;0.50;;;12.80;22.60;;;;;;4978825;28;20419;-69
2021/05/23 01:46:41;;;;;;;3.00;0.73;;;12.70;99.90;;;;;;4977624;28;20054;-69
2021/05/23 01:49:08;;;;;;;2.97;0.43;;;12.70;99.90;;;;;;4976912;28;20070;-71
2021/05/23 01:51:34;;;;;;;1.27;1.08;;;12.60;99.90;;;;;;4976285;28;20023;-69
2021/05/23 01:54:00;;;;;;;0.80;0.57;;;12.60;99.90;;;;;;4977280;28;20082;-69
2021/05/23 01:56:26;;;;;;;0.98;0.63;;;12.60;1.00;;;;;;4977680;28;20053;-71
2021/05/23 01:58:51;;;;;;;1.58;0.50;;;12.60;1.00;;;;;;4978586;28;20030;-70
2021/05/23 02:01:17;;;;;;;1.20;0.47;;;12.60;1.00;;;;;;4980059;28;20038;-70
2021/05/23 02:03:43;;;;;;;1.27;0.70;;;12.50;1.00;;;;;;4977355;28;20470;-69
2021/05/23 02:06:09;;;;;;;2.35;0.70;;;12.50;1.00;;;;;;4975964;28;20043;-70
2021/05/23 02:08:35;;;;;;;3.75;0.52;;;12.50;1.00;;;;;;4979488;28;20066;-70
2021/05/23 02:11:07;;;;;;;0.90;0.60;;;12.50;1.00;;;;;;4977874;28;20038;-70
2021/05/23 02:13:33;;;;;;;0.40;0.40;;;12.50;1.00;;;;;;4994369;28;20090;-69
2021/05/23 02:16:00;;;;;;;0.82;0.47;;;12.50;1.00;;;;;;4978266;28;20134;-70
2021/05/23 02:18:27;;;;;;;1.65;0.70;;;12.50;1.00;;;;;;4962154;28;20058;-69
2021/05/23 02:20:52;;;;;;;1.42;0.50;;;12.50;1.00;;;;;;4977833;28;20077;-68
2021/05/23 02:23:24;;;;;;;2.05;0.50;;;12.60;1.00;;;;;;4979665;28;20027;-69
2021/05/23 02:25:51;;;;;;;0.90;0.70;;;12.50;28.50;;;;;;4975611;28;20023;-70
2021/05/23 02:28:17;;;;;;;2.00;0.55;;;12.50;99.90;;;;;;4987636;28;20031;-70
2021/05/23 02:30:46;;;;;;;1.75;0.40;;;12.40;99.90;;;;;;4981124;28;20450;-69
2021/05/23 02:33:14;;;;;;;1.45;0.60;;;12.10;99.90;;;;;;4979664;28;20027;-71
2021/05/23 02:35:45;;;;;;;2.17;0.60;;;11.80;99.90;;;;;;4977335;28;20027;-69
2021/05/23 02:38:12;;;;;;;2.85;0.85;;;11.60;99.90;;;;;;4976645;28;20027;-70
2021/05/23 02:40:39;;;;;;;0.82;0.50;;;11.40;1.00;;;;;;4996992;28;20006;-69
2021/05/23 02:43:06;;;;;;;1.08;0.60;;;11.20;1.00;;;;;;4981850;28;20054;-69
2021/05/23 02:45:34;;;;;;;3.15;0.40;;;11.00;1.00;;;;;;4975350;28;20151;-70
2021/05/23 02:48:01;;;;;;;0.63;0.35;;;10.80;1.00;;;;;;4976218;28;20078;-69
2021/05/23 02:50:30;;;;;;;0.60;0.40;;;10.70;1.00;;;;;;4976286;28;20039;-69
2021/05/23 02:52:57;;;;;;;0.63;0.57;;;10.70;1.00;;;;;;4975481;28;20380;-69
2021/05/23 02:55:23;;;;;;;1.75;0.60;;;10.60;1.00;;;;;;4990285;28;20027;-70
2021/05/23 02:57:50;;;;;;;0.52;0.25;;;10.50;1.00;;;;;;4975555;28;20027;-69
2021/05/23 03:00:18;;;;;;;0.40;0.30;;;10.40;1.00;;;;;;4975375;28;20034;-69
2021/05/23 03:02:45;;;;;;;0.22;0.22;;;10.40;1.00;;;;;;4976069;28;20019;-69
2021/05/23 03:05:13;;;;;;;0.82;0.22;;;10.30;1.00;;;;;;4975314;28;20030;-69
2021/05/23 03:07:41;;;;;;;1.75;0.50;;;10.30;1.00;;;;;;4975479;28;20037;-70
2021/05/23 03:10:09;;;;;;;0.90;0.55;;;10.30;1.00;;;;;;4975726;28;20037;-69
2021/05/23 03:12:36;;;;;;;0.35;0.30;;;10.30;1.00;;;;;;4975293;28;20029;-69
2021/05/23 03:15:03;;;;;;;0.65;0.30;;;10.30;1.00;;;;;;4975301;28;20081;-69
2021/05/23 03:17:29;;;;;;;3.30;0.57;;;10.30;1.00;;;;;;4974898;28;20034;-69
2021/05/23 03:19:55;;;;;;;1.38;0.43;;;10.30;1.00;;;;;;4975472;28;20035;-69
2021/05/23 03:22:20;;;;;;;0.52;0.40;;;10.20;1.00;;;;;;4975194;28;20521;-69
2021/05/23 03:24:46;;;;;;;0.20;0.20;;;10.20;1.00;;;;;;4975278;28;20034;-70
2021/05/23 03:27:11;;;;;;;0.47;0.30;;;10.20;1.00;;;;;;4977361;28;20395;-70
2021/05/23 03:29:37;;;;;;;0.90;0.50;;;10.20;1.00;;;;;;4974357;28;20113;-68
2021/05/23 03:32:03;;;;;;;1.88;0.32;;;10.20;1.00;;;;;;4974897;28;20033;-70
2021/05/23 03:34:28;;;;;;;1.20;0.40;;;10.20;1.00;;;;;;4975188;28;20437;-70
2021/05/23 03:36:54;;;;;;;2.33;0.40;;;10.10;1.00;;;;;;4975540;28;20053;-69
2021/05/23 03:39:19;;;;;;;1.25;0.52;;;10.10;1.00;;;;;;4975239;28;20471;-69
2021/05/23 03:41:45;;;;;;;0.40;0.40;;;10.10;1.00;;;;;;4975904;28;20014;-71
2021/05/23 03:44:11;;;;;;;0.90;0.52;;;10.10;1.00;;;;;;4975054;28;20058;-69
2021/05/23 03:46:36;;;;;;;1.35;0.40;;;10.10;1.00;;;;;;4975317;28;20095;-68
2021/05/23 03:49:04;;;;;;;1.95;0.40;;;10.20;1.00;;;;;;4974626;28;20365;-68
2021/05/23 03:51:29;;;;;;;0.40;0.38;;;10.20;1.00;;;;;;4974116;28;20019;-70
2021/05/23 03:53:55;;;;;;;2.38;0.50;;;10.20;1.00;;;;;;4974978;28;20077;-70
2021/05/23 03:56:21;;;;;;;0.47;0.47;;;10.20;1.00;;;;;;4975047;28;20152;-70
2021/05/23 03:58:46;;;;;;;2.03;0.50;;;10.20;1.00;;;;;;4974943;28;20113;-69
2021/05/23 04:01:14;;;;;;;0.88;0.40;;;10.10;1.00;;;;;;4975196;28;20326;-69
2021/05/23 04:03:40;;;;;;;0.28;0.28;;;10.20;1.00;;;;;;4975150;28;20391;-70
2021/05/23 04:06:06;;;;;;;0.82;0.43;;;10.20;1.00;;;;;;4974538;28;20031;-70
2021/05/23 04:08:31;;;;;;;0.63;0.20;;;10.20;1.00;;;;;;4975762;28;20027;-70
2021/05/23 04:11:14;;;;;;;0.32;0.32;;;10.20;1.00;;;;;;4984150;28;20023;-69
2021/05/23 04:13:41;;;;;;;0.52;0.30;;;10.30;1.00;;;;;;4970512;28;20034;-69
2021/05/23 04:16:10;;;;;;;0.50;0.45;;;10.30;1.00;;;;;;5002645;28;20490;-69
2021/05/23 04:18:36;;;;;;;0.38;0.38;;;10.30;1.00;;;;;;4988130;28;20379;-69
2021/05/23 04:21:02;;;;;;;0.38;0.30;;;10.30;1.00;;;;;;4988874;28;20053;-68
2021/05/23 04:23:28;;;;;;;0.90;0.30;;;10.30;1.00;;;;;;4982895;28;20023;-69
2021/05/23 04:25:54;;;;;;;2.00;0.40;;;10.30;1.00;;;;;;4978925;28;20030;-71
2021/05/23 04:28:20;;;;;;;0.30;0.20;;;10.20;1.00;;;;;;4979166;28;20022;-69
2021/05/23 04:30:45;;;;;;;1.23;0.40;;;10.30;1.00;;;;;;4982996;28;20495;-70
2021/05/23 04:33:11;;;;;;;0.50;0.40;;;10.30;1.00;;;;;;4979815;28;20054;-71
2021/05/23 04:35:37;;;;;;;0.55;0.40;;;10.30;1.00;;;;;;4980461;28;20077;-68
2021/05/23 04:38:04;;;;;;;0.35;0.32;;;10.30;1.00;;;;;;4995921;28;20084;-69
2021/05/23 04:40:30;;;;;;;2.08;0.40;;;10.40;1.00;;;;;;4978239;28;20022;-69
2021/05/23 04:42:56;;;;;;;0.60;0.45;;;10.40;1.00;;;;;;4976108;28;20034;-71
2021/05/23 04:45:22;;;;;;;0.50;0.30;;;10.40;1.00;;;;;;4975110;28;20450;-70
2021/05/23 04:47:48;;;;;;;0.73;0.40;;;10.40;1.00;;;;;;4974823;28;20031;-69
2021/05/23 04:50:14;;;;;;;1.38;0.55;;;10.50;1.00;;;;;;4975528;28;20094;-68
2021/05/23 04:52:40;;;;;;;0.50;0.50;;;10.50;1.00;;;;;;4989990;28;20558;-69
2021/05/23 04:55:07;;;;;;;1.00;0.57;;;10.50;1.00;;;;;;4975351;28;20058;-68
2021/05/23 04:57:34;;;;;;;1.63;0.50;;;10.60;1.00;;;;;;4975983;28;20391;-70
2021/05/23 04:59:59;;;;;;;0.65;0.40;;;10.60;1.00;;;;;;4975546;28;20069;-70
2021/05/23 05:02:25;;;;;;;0.80;0.30;;;10.60;1.00;;;;;;4976395;28;20019;-69
2021/05/23 05:04:51;;;;;;;1.00;0.57;;;10.70;1.00;;;;;;4975409;28;20092;-69
2021/05/23 05:07:16;;;;;;;2.58;0.50;;;10.70;1.00;;;;;;4988805;28;20081;-69
2021/05/23 05:09:42;;;;;;;0.93;0.50;;;10.80;1.00;;;;;;4989118;28;20066;-72
2021/05/23 05:12:08;;;;;;;2.00;0.70;;;10.90;1.00;;;;;;4977618;28;20415;-69
2021/05/23 05:14:34;;;;;;;1.10;0.57;;;11.00;1.00;;;;;;4977491;28;20023;-69
2021/05/23 05:17:00;;;;;;;0.65;0.35;;;11.00;1.00;;;;;;4976243;28;20054;-69
2021/05/23 05:19:28;;;;;;;0.47;0.45;;;11.10;1.00;;;;;;4977112;28;20399;-69
2021/05/23 05:21:54;;;;;;;1.95;0.65;;;11.20;1.00;;;;;;4981002;28;20062;-71
2021/05/23 05:24:19;;;;;;;2.80;1.08;;;11.20;1.00;;;;;;4980161;28;20035;-70
2021/05/23 05:26:45;;;;;;;2.33;0.50;;;11.20;1.00;;;;;;4978986;28;20115;-69
2021/05/23 05:29:11;;;;;;;2.13;1.10;;;11.20;1.00;;;;;;4983929;28;20018;-69
2021/05/23 05:31:36;;;;;;;1.25;0.60;;;11.30;1.00;;;;;;4984083;28;20497;-70
2021/05/23 05:34:03;;;;;;;0.82;0.80;;;11.30;1.00;;;;;;4981487;28;20105;-69
2021/05/23 05:36:28;;;;;;;0.90;0.50;;;11.40;1.00;;;;;;4983835;28;20476;-69
2021/05/23 05:38:54;;;;;;;0.88;0.60;;;11.50;1.00;;;;;;4984397;28;20025;-71
2021/05/23 05:41:20;;;;;;;1.20;0.80;;;11.50;1.00;;;;;;4979026;28;20114;-69
2021/05/23 05:43:49;;;;;;;1.00;0.68;;;11.50;1.00;;;;;;4979124;28;20054;-69
2021/05/23 05:46:15;;;;;;;3.30;0.75;;;11.40;1.00;;;;;;4976402;28;20038;-68
2021/05/23 05:48:41;;;;;;;0.47;0.40;;;11.40;1.00;;;;;;4978105;28;20019;-69
2021/05/23 05:51:07;;;;;;;2.75;0.75;;;11.30;1.00;;;;;;4977544;28;20026;-70
2021/05/23 05:53:32;;;;;;;0.93;0.60;;;11.30;1.00;;;;;;4978268;28;20023;-68
2021/05/23 05:55:58;;;;;;;5.32;0.93;;;11.40;1.00;;;;;;4978467;28;20097;-69
2021/05/23 05:58:24;;;;;;;0.93;0.60;;;11.40;1.00;;;;;;4979123;28;20483;-72
2021/05/23 06:00:49;;;;;;;0.80;0.68;;;11.30;1.00;;;;;;4980000;28;20023;-69
2021/05/23 06:03:15;;;;;;;0.95;0.50;;;11.30;1.00;;;;;;4980851;28;20451;-69
2021/05/23 06:05:41;;;;;;;0.85;0.68;;;11.40;1.00;;;;;;4981890;28;20090;-68
2021/05/23 06:08:06;;;;;;;1.88;0.50;;;11.40;1.00;;;;;;4980270;28;20082;-72
2021/05/23 06:10:32;;;;;;;2.58;0.50;;;11.50;1.00;;;;;;4979976;28;20019;-68
2021/05/23 06:13:00;;;;;;;0.75;0.63;;;11.60;1.00;;;;;;4977610;28;20073;-68
2021/05/23 06:15:26;;;;;;;1.85;0.82;;;11.80;1.00;;;;;;4977197;28;20022;-70
2021/05/23 06:17:51;;;;;;;4.10;0.60;;;11.90;1.00;;;;;;4992235;28;20037;-69
2021/05/23 06:20:17;;;;;;;2.45;0.68;;;11.90;1.00;;;;;;4976670;28;20402;-69
2021/05/23 06:22:42;;;;;;;1.45;0.40;;;12.20;99.90;;;;;;4977083;28;20111;-70
2021/05/23 06:25:09;;;;;;;1.70;0.30;;;12.40;99.90;;;;;;4975961;28;20038;-70
2021/05/23 06:27:36;;;;;;;1.40;0.60;;;12.40;99.90;;;;;;4976563;28;20038;-68
2021/05/23 06:30:02;;;;;;;1.30;0.43;;;12.40;99.90;;;;;;4974089;28;20089;-69
2021/05/23 06:32:28;;;;;;;1.35;0.70;;;12.40;99.90;;;;;;4977283;28;20063;-71
2021/05/23 06:34:54;;;;;;;1.23;0.40;;;12.40;99.90;;;;;;4978160;28;20026;-69
2021/05/23 06:37:19;;;;;;;0.80;0.68;;;12.30;99.90;;;;;;4976726;28;20082;-69
2021/05/23 06:39:45;;;;;;;1.48;0.40;;;12.50;99.90;;;;;;4976300;28;20442;-69
2021/05/23 06:42:11;;;;;;;1.08;0.75;;;12.60;99.90;;;;;;4976801;28;20029;-70
2021/05/23 06:44:36;;;;;;;1.25;0.60;;;12.80;99.90;;;;;;4979867;28;20030;-69
2021/05/23 06:47:02;;;;;;;2.75;0.60;;;13.00;99.90;;;;;;4978317;28;20038;-69
2021/05/23 06:49:28;;;;;;;2.80;0.65;;;13.10;99.90;;;;;;4985053;28;20037;-69
2021/05/23 06:51:54;;;;;;;1.88;0.77;;;13.10;99.90;;;;;;4985747;28;20019;-69
2021/05/23 06:54:19;;;;;;;0.47;0.40;;;13.20;99.90;;;;;;4980715;28;20065;-70
2021/05/23 06:56:45;;;;;;;0.93;0.50;;;13.30;99.90;;;;;;4975393;28;20027;-70
2021/05/23 06:59:11;;;;;;;0.50;0.50;;;13.60;99.90;;;;;;4976086;28;20030;-71
2021/05/23 07:01:37;;;;;;;1.20;0.60;;;13.60;99.90;;;;;;4976461;28;20073;-69
2021/05/23 07:04:03;;;;;;;2.45;0.85;;;13.60;99.90;;;;;;4976316;28;20023;-72
2021/05/23 07:06:29;;;;;;;0.63;0.50;;;13.50;99.90;;;;;;4976980;28;20026;-72
2021/05/23 07:08:54;;;;;;;1.10;0.70;;;13.70;99.90;;;;;;4975408;28;20025;-70
2021/05/23 07:11:20;;;;;;;1.30;0.50;;;14.00;99.90;;;;;;4976957;28;20077;-71
2021/05/23 07:13:46;;;;;;;1.98;0.50;;;14.00;99.90;;;;;;4976098;28;20021;-70
2021/05/23 07:16:11;;;;;;;0.70;0.50;;;13.90;99.90;;;;;;4976808;28;20472;-71
2021/05/23 07:18:37;;;;;;;3.70;0.57;;;14.10;99.90;;;;;;4975923;28;20035;-70
2021/05/23 07:21:03;;;;;;;0.68;0.50;;;14.50;99.90;;;;;;4975826;28;20027;-70
2021/05/23 07:23:29;;;;;;;1.08;0.40;;;14.80;99.90;;;;;;4975349;28;20696;-71
2021/05/23 07:25:55;;;;;;;1.10;0.55;;;14.80;99.90;;;;;;4975635;28;20031;-71
2021/05/23 07:28:21;;;;;;;0.90;0.40;;;14.70;99.90;;;;;;4975567;28;20023;-70
2021/05/23 07:30:47;;;;;;;2.28;0.50;;;14.90;83.10;;;;;;4974715;28;20483;-72
2021/05/23 07:33:15;;;;;;;1.60;0.60;;;15.00;48.90;;;;;;4974192;28;20089;-70
2021/05/23 07:35:41;;;;;;;0.65;0.57;;;14.80;54.50;;;;;;4975656;28;20100;-70
2021/05/23 07:38:07;;;;;;;2.08;0.60;;;14.70;70.30;;;;;;4973577;28;20118;-68
2021/05/23 07:40:32;;;;;;;4.00;3.58;;;14.30;99.90;;;;;;4975042;28;20486;-70
2021/05/23 07:42:58;;;;;;;0.30;0.30;;;14.20;99.90;;;;;;4974615;28;20097;-70
2021/05/23 07:45:24;;;;;;;1.15;0.30;;;14.00;99.90;;;;;;4974293;28;20023;-69
2021/05/23 07:47:49;;;;;;;1.40;0.63;;;13.70;99.90;;;;;;4970418;28;20035;-70
2021/05/23 07:50:15;;;;;;;0.85;0.57;;;12.90;99.90;;;;;;4979642;28;20058;-73
2021/05/23 07:52:41;;;;;;;1.40;0.40;;;11.90;99.90;;;;;;4974908;28;20035;-74
2021/05/23 07:55:07;;;;;;;1.65;0.77;;;11.40;1.00;;;;;;4975956;28;20041;-72
2021/05/23 07:57:33;;;;;;;0.80;0.57;;;11.00;1.00;;;;;;4980519;28;20035;-71
2021/05/23 08:00:00;;;;;;;2.25;0.43;;;10.70;99.90;;;;;;4984993;28;20030;-75
2021/05/23 08:02:25;;;;;;;1.02;0.50;;;10.80;1.00;;;;;;4982783;28;20031;-76
2021/05/23 08:04:51;;;;;;;2.38;0.45;;;10.70;1.00;;;;;;4981525;28;20081;-75
2021/05/23 08:07:17;;;;;;;3.65;0.52;;;10.70;1.00;;;;;;4980597;28;20113;-77
2021/05/23 08:09:42;;;;;;;2.08;0.70;;;10.70;1.00;;;;;;4979212;28;20061;-74
2021/05/23 08:12:08;;;;;;;2.20;0.70;;;10.80;1.00;;;;;;4976939;28;20434;-77
2021/05/23 08:14:34;;;;;;;0.55;0.45;;;10.80;1.00;;;;;;4977532;28;20478;-78
2021/05/23 08:16:59;;;;;;;1.08;0.57;;;10.90;1.00;;;;;;4976253;28;20038;-76
2021/05/23 08:19:25;;;;;;;0.88;0.40;;;11.10;1.00;;;;;;4989560;23;20045;-78
2021/05/23 08:21:50;;;;;;;1.17;1.05;;;11.30;1.00;;;;;;4989584;28;20078;-77
2021/05/23 08:24:16;;;;;;;2.13;0.43;;;11.70;1.00;;;;;;4989727;28;20038;-78
2021/05/23 08:26:42;;;;;;;0.68;0.57;;;12.10;1.00;;;;;;4974961;28;20507;-80
2021/05/23 08:29:08;;;;;;;1.15;0.50;;;12.30;99.90;;;;;;4975245;28;20026;-77
2021/05/23 08:31:34;;;;;;;1.40;0.77;;;12.70;99.90;;;;;;4974975;28;20039;-79
2021/05/23 08:34:00;;;;;;;0.60;0.57;;;13.00;99.90;;;;;;4974976;28;20037;-78
2021/05/23 08:36:26;;;;;;;0.50;0.38;;;13.00;99.90;;;;;;4974355;28;20202;-77
2021/05/23 08:38:52;;;;;;;2.08;0.50;;;13.00;99.90;;;;;;4970683;28;20565;-78
2021/05/23 08:41:18;;;;;;;0.63;0.30;;;13.20;99.90;;;;;;4973758;28;20105;-77
2021/05/23 08:43:45;;;;;;;0.32;0.30;;;13.50;99.90;;;;;;4980665;28;20154;-82
2021/05/23 08:46:11;;;;;;;0.73;0.57;;;14.00;99.90;;;;;;4977654;28;20042;-83
2021/05/23 08:48:39;;;;;;;0.75;0.32;;;14.00;99.90;;;;;;4981713;28;20015;-81
2021/05/23 08:51:06;;;;;;;2.83;0.60;;;14.00;99.90;;;;;;4977676;28;20029;-80
2021/05/23 08:53:31;;;;;;;0.82;0.52;;;13.90;99.90;;;;;;4975837;28;20435;-82
2021/05/23 08:55:57;;;;;;;1.17;0.47;;;13.90;99.90;;;;;;4977398;28;20037;-84
2021/05/23 08:58:24;;;;;;;1.02;0.60;;;13.60;99.90;;;;;;4976931;28;20117;-81
2021/05/23 09:00:50;;;;;;;0.88;0.80;;;13.60;99.90;;;;;;4968573;28;20097;-78
2021/05/23 09:03:16;;;;;;;2.10;0.70;;;13.40;99.90;;;;;;4975688;28;20023;-78
2021/05/23 09:05:50;;;;;;;1.75;0.60;;;13.40;99.90;;;;;;4966153;28;20022;-79
2021/05/23 09:08:19;;;;;;;2.35;0.57;;;13.50;99.90;;;;;;4974551;28;20031;-82
2021/05/23 09:10:46;;;;;;;2.63;0.65;;;13.50;99.90;;;;;;4973706;28;20539;-80
2021/05/23 09:13:14;;;;;;;2.85;0.38;;;13.30;99.90;;;;;;4977631;28;20114;-81
2021/05/23 09:15:40;;;;;;;3.03;0.63;;;13.00;99.90;;;;;;4976522;28;20384;-80
2021/05/23 09:18:15;;;;;;;1.75;1.27;;;13.00;99.90;;;;;;4975601;28;20364;-81
2021/05/23 09:20:43;;;;;;;2.05;0.70;;;13.00;99.90;;;;;;4974785;28;20031;-81
2021/05/23 09:23:17;;;;;;;1.25;0.60;;;13.00;99.90;;;;;;4975573;28;20027;-80
2021/05/23 09:25:43;;;;;;;1.35;0.60;;;13.20;99.90;;;;;;4975318;28;20348;-79
2021/05/23 09:28:09;;;;;;;5.22;0.93;;;13.20;99.90;;;;;;4976036;28;20026;-78
2021/05/23 09:30:36;;;;;;;1.60;0.60;;;13.30;99.90;;;;;;4973117;28;20479;-79
2021/05/23 09:33:02;;;;;;;2.45;0.50;;;13.50;99.90;;;;;;4972622;28;20035;-79
2021/05/23 09:35:30;;;;;;;2.85;0.60;;;13.80;99.90;;;;;;4973680;28;20102;-79
2021/05/23 09:38:04;;;;;;;2.00;0.60;;;13.90;99.90;;;;;;4973910;28;20042;-82
2021/05/23 09:40:34;;;;;;;2.85;0.77;;;14.10;99.90;;;;;;4975840;28;20031;-80
2021/05/23 09:43:00;;;;;;;0.77;0.70;;;14.20;99.90;;;;;;4975021;28;20030;-82
2021/05/23 09:45:39;;;;;;;1.60;0.55;;;14.20;99.90;;;;;;4976229;28;20063;-79
2021/05/23 09:48:07;;;;;;;2.55;0.82;;;14.10;99.90;;;;;;4973663;28;20029;-74
2021/05/23 09:50:43;;;;;;;1.13;0.60;;;14.00;99.90;;;;;;4970034;28;20027;-74
2021/05/23 09:53:35;;;;;;;1.88;0.60;;;13.90;99.90;;;;;;4971058;28;20023;-75
2021/05/23 09:56:04;;;;;;;2.15;0.57;;;13.70;99.90;;;;;;4970445;28;20522;-76
2021/05/23 09:58:31;;;;;;;1.60;0.50;;;13.20;99.90;;;;;;4972576;28;20503;-76
2021/05/23 10:00:57;;;;;;;0.85;0.50;;;12.80;99.90;;;;;;4973857;28;20407;-76
2021/05/23 10:03:26;;;;;;;1.42;0.60;;;12.70;99.90;;;;;;4985368;28;20019;-76
2021/05/23 10:05:51;;;;;;;2.45;0.40;;;12.70;99.90;;;;;;4976304;28;20088;-79
2021/05/23 10:08:17;;;;;;;1.52;0.55;;;12.70;99.90;;;;;;4975577;28;20015;-77
2021/05/23 10:10:44;;;;;;;1.30;0.50;;;12.80;99.90;;;;;;4975872;28;20026;-77
2021/05/23 10:13:10;;;;;;;0.85;0.55;;;13.00;99.90;;;;;;4977615;28;20026;-77
2021/05/23 10:15:37;;;;;;;1.30;0.73;;;13.20;99.90;;;;;;4984489;28;20570;-75
2021/05/23 10:18:03;;;;;;;0.40;0.30;;;13.70;99.90;;;;;;4975629;28;20042;-79
2021/05/23 10:20:30;;;;;;;2.65;0.40;;;14.10;99.90;;;;;;4975197;28;20065;-76
2021/05/23 10:22:58;;;;;;;1.77;0.77;;;14.20;99.90;;;;;;4975601;28;20018;-76
2021/05/23 10:25:25;;;;;;;0.60;0.47;;;14.30;99.90;;;;;;4975185;28;20472;-77
2021/05/23 10:27:52;;;;;;;4.32;1.17;;;14.70;99.90;;;;;;4983232;28;20082;-80
2021/05/23 10:30:19;;;;;;;0.70;0.60;;;15.20;99.90;;;;;;4982324;28;20077;-81
2021/05/23 10:32:44;;;;;;;1.23;0.60;;;15.10;1.00;;;;;;4984977;28;20022;-81
2021/05/23 10:35:18;;;;;;;1.95;0.90;;;15.10;32.30;;;;;;4985915;28;20027;-82
2021/05/23 10:37:46;;;;;;;0.93;0.35;;;15.40;56.50;;;;;;4984678;28;20019;-82
2021/05/23 10:40:23;;;;;;;2.10;0.68;;;15.70;1.00;;;;;;4984543;28;20033;-84
2021/05/23 10:42:52;;;;;;;1.40;0.50;;;15.90;1.00;;;;;;4981625;28;20033;-82
2021/05/23 10:45:28;;;;;;;1.00;0.50;;;15.80;99.90;;;;;;4982463;28;20027;-81
2021/05/23 10:47:55;;;;;;;0.60;0.60;;;15.90;99.90;;;;;;4981396;28;20023;-81
2021/05/23 10:50:37;;;;;;;3.20;0.50;;;15.20;99.90;;;;;;4979881;28;20022;-80
2021/05/23 10:53:04;;;;;;;1.85;0.50;;;15.00;99.90;;;;;;4989931;28;20033;-81
2021/05/23 10:55:30;;;;;;;2.20;0.70;;;15.00;99.90;;;;;;4994556;28;20023;-81
2021/05/23 10:57:57;;;;;;;0.77;0.77;;;14.70;1.00;;;;;;4994938;28;20023;-82
2021/05/23 11:00:35;;;;;;;2.08;0.70;;;14.70;1.00;;;;;;4997990;28;20099;-81
2021/05/23 11:03:32;;;;;;;12.45;1.23;;;14.90;1.00;;;;;;4999382;28;20034;-82
2021/05/23 11:06:40;;;;;;;1.48;0.73;;;14.80;99.90;;;;;;4998378;28;20029;-83
2021/05/23 11:09:42;;;;;;;1.65;0.50;;;14.60;99.90;;;;;;5095482;23;20072;-80
2021/05/23 11:12:50;;;;;;;2.50;0.70;;;14.40;99.90;;;;;;5020820;28;20080;-82
2021/05/23 11:15:17;;;;;;;2.28;0.73;;;14.30;1.00;;;;;;4997529;28;20065;-81
2021/05/23 11:18:28;;;;;;;1.20;0.70;;;14.10;41.20;;;;;;5016481;28;20021;-81
2021/05/23 11:21:01;;;;;;;2.25;0.70;;;14.00;99.90;;;;;;4991029;28;20122;-77
2021/05/23 11:23:28;;;;;;;2.63;0.82;;;13.90;99.90;;;;;;4986287;28;20040;-78
2021/05/23 11:26:07;;;;;;;1.10;0.55;;;13.90;99.90;;;;;;4998641;28;20133;-79
2021/05/23 11:28:33;;;;;;;1.23;0.70;;;13.80;99.90;;;;;;5002071;28;20022;-79
2021/05/23 11:30:59;;;;;;;3.75;0.70;;;13.90;99.90;;;;;;5011138;28;20053;-76
2021/05/23 11:33:25;;;;;;;0.68;0.40;;;14.00;99.90;;;;;;4990345;28;20460;-80
2021/05/23 11:35:53;;;;;;;1.58;0.57;;;14.20;99.90;;;;;;5001490;28;20049;-77
2021/05/23 11:38:21;;;;;;;1.20;0.70;;;14.40;99.90;;;;;;5013585;28;20050;-77
2021/05/23 11:40:47;;;;;;;0.90;0.40;;;14.80;99.90;;;;;;5015053;28;20026;-76
2021/05/23 11:43:17;;;;;;;2.40;0.50;;;15.10;2.70;;;;;;5015880;28;20045;-75
2021/05/23 11:45:54;;;;;;;2.47;1.10;;;15.50;1.00;;;;;;5016014;28;20010;-75
2021/05/23 11:48:33;;;;;;;2.63;0.50;;;15.90;99.90;;;;;;5016626;28;20026;-79
2021/05/23 11:50:59;;;;;;;1.20;0.40;;;16.10;99.90;;;;;;5005451;28;20038;-78
2021/05/23 11:53:36;;;;;;;1.67;0.40;;;16.30;1.00;;;;;;4994326;28;20490;-73
2021/05/23 11:56:02;;;;;;;0.65;0.50;;;16.80;1.00;;;;;;4994570;28;20052;-74
2021/05/23 11:58:28;;;;;;;0.32;0.30;;;16.90;99.90;;;;;;4993644;28;20026;-73
2021/05/23 12:00:54;;;;;;;0.95;0.50;;;16.80;98.60;;;;;;4993962;28;20454;-75
2021/05/23 12:03:19;;;;;;;0.57;0.30;;;17.00;99.90;;;;;;4992846;28;20034;-74
2021/05/23 12:05:45;;;;;;;0.75;0.30;;;17.40;10.20;;;;;;4992306;28;20018;-73
2021/05/23 12:08:22;;;;;;;0.77;0.50;;;17.30;1.00;;;;;;4991971;28;20027;-72
2021/05/23 12:11:07;;;;;;;0.73;0.38;;;17.20;1.00;;;;;;4992376;28;20504;-73
2021/05/23 12:13:45;;;;;;;0.80;0.50;;;17.10;1.00;;;;;;4985900;28;20022;-73
2021/05/23 12:16:17;;;;;;;2.10;0.40;;;16.90;1.00;;;;;;4992592;28;20077;-74
2021/05/23 12:18:48;;;;;;;2.20;0.45;;;17.00;1.00;;;;;;4993419;28;20554;-75
2021/05/23 12:21:17;;;;;;;;;;;17.00;1.00;;;;;;4993281;28;20105;-74
2021/05/23 12:23:46;;;;;;;0.85;0.45;;;16.90;1.00;;;;;;4993399;28;19917;-75
2021/05/23 12:26:13;;;;;;;1.20;0.50;;;17.20;1.00;;;;;;4993976;28;20025;-75
2021/05/23 12:28:43;;;;;;;0.55;0.38;;;17.20;1.00;;;;;;5000128;28;20010;-75
2021/05/23 12:31:10;;;;;;;0.52;0.40;;;17.40;1.00;;;;;;5005983;28;20125;-75
2021/05/23 12:33:37;;;;;;;0.52;0.30;;;17.20;1.00;;;;;;4993642;28;20079;-76
2021/05/23 12:36:11;;;;;;;0.82;0.40;;;16.70;1.00;;;;;;4994488;28;20105;-76
2021/05/23 12:38:38;;;;;;;0.98;0.30;;;16.80;1.00;;;;;;4994841;28;20022;-76
2021/05/23 12:41:12;;;;;;;0.98;0.40;;;16.70;1.00;;;;;;4994482;28;20487;-76
2021/05/23 12:43:40;;;;;;;1.58;0.45;;;16.80;1.00;;;;;;4990671;28;20027;-75
2021/05/23 12:46:10;;;;;;;0.95;0.70;;;16.90;1.00;;;;;;4993105;28;20031;-75
2021/05/23 12:48:40;;;;;;;1.23;0.70;;;17.00;1.00;;;;;;4993809;28;20475;-77
2021/05/23 12:51:14;;;;;;;2.70;1.00;;;17.10;1.00;;;;;;4993829;28;20030;-76
2021/05/23 12:53:49;;;;;;;1.00;0.57;;;16.70;1.00;;;;;;4993659;28;20034;-74
2021/05/23 12:56:24;;;;;;;1.00;0.50;;;16.30;1.00;;;;;;4993588;28;20022;-76